sensor_id;sensor_type;location;lat;lon;timestamp;temperature;humidity
3418;DHT22;68007;51.312;12.372;2023-04-06T00:01:46;6.50;73.90
3418;DHT22;68007;51.312;12.372;2023-04-06T00:04:14;6.50;73.90
3418;DHT22;68007;51.312;12.372;2023-04-06T00:06:44;6.50;73.80
3418;DHT22;68007;51.312;12.372;2023-04-06T00:09:11;6.50;74.10
3418;DHT22;68007;51.312;12.372;2023-04-06T00:11:39;6.50;74.20
3418;DHT22;68007;51.312;12.372;2023-04-06T00:14:07;6.50;74.50
3418;DHT22;68007;51.312;12.372;2023-04-06T00:16:36;6.50;74.60
3418;DHT22;68007;51.312;12.372;2023-04-06T00:19:03;6.50;75.00
3418;DHT22;68007;51.312;12.372;2023-04-06T00:21:31;6.50;75.00
3418;DHT22;68007;51.312;12.372;2023-04-06T00:23:58;6.40;75.10
3418;DHT22;68007;51.312;12.372;2023-04-06T00:26:26;6.40;75.20
3418;DHT22;68007;51.312;12.372;2023-04-06T00:28:54;6.40;75.40
3418;DHT22;68007;51.312;12.372;2023-04-06T00:31:21;6.40;75.40
3418;DHT22;68007;51.312;12.372;2023-04-06T00:33:51;6.40;75.50
3418;DHT22;68007;51.312;12.372;2023-04-06T00:36:18;6.40;75.50
3418;DHT22;68007;51.312;12.372;2023-04-06T00:38:46;6.40;75.70
3418;DHT22;68007;51.312;12.372;2023-04-06T00:41:14;6.40;75.80
3418;DHT22;68007;51.312;12.372;2023-04-06T00:43:41;6.40;75.80
3418;DHT22;68007;51.312;12.372;2023-04-06T00:46:09;6.40;76.00
3418;DHT22;68007;51.312;12.372;2023-04-06T00:48:37;6.40;76.20
3418;DHT22;68007;51.312;12.372;2023-04-06T00:51:06;6.40;76.40
3418;DHT22;68007;51.312;12.372;2023-04-06T00:53:34;6.40;76.30
3418;DHT22;68007;51.312;12.372;2023-04-06T00:56:02;6.30;76.30
3418;DHT22;68007;51.312;12.372;2023-04-06T00:58:29;6.30;76.40
3418;DHT22;68007;51.312;12.372;2023-04-06T01:00:58;6.40;76.30
3418;DHT22;68007;51.312;12.372;2023-04-06T01:03:25;6.40;76.10
3418;DHT22;68007;51.312;12.372;2023-04-06T01:05:53;6.30;76.00
3418;DHT22;68007;51.312;12.372;2023-04-06T01:08:25;6.30;76.30
3418;DHT22;68007;51.312;12.372;2023-04-06T01:10:55;6.30;76.20
3418;DHT22;68007;51.312;12.372;2023-04-06T01:13:23;6.30;76.30
3418;DHT22;68007;51.312;12.372;2023-04-06T01:15:50;6.30;76.50
3418;DHT22;68007;51.312;12.372;2023-04-06T01:18:18;6.30;76.60
3418;DHT22;68007;51.312;12.372;2023-04-06T01:20:46;6.30;76.50
3418;DHT22;68007;51.312;12.372;2023-04-06T01:23:15;6.30;76.60
3418;DHT22;68007;51.312;12.372;2023-04-06T01:25:43;6.20;76.70
3418;DHT22;68007;51.312;12.372;2023-04-06T01:28:10;6.20;76.80
3418;DHT22;68007;51.312;12.372;2023-04-06T01:30:38;6.30;76.70
3418;DHT22;68007;51.312;12.372;2023-04-06T01:33:06;6.20;76.70
3418;DHT22;68007;51.312;12.372;2023-04-06T01:35:33;6.20;76.80
3418;DHT22;68007;51.312;12.372;2023-04-06T01:38:01;6.20;76.80
3418;DHT22;68007;51.312;12.372;2023-04-06T01:40:30;6.20;76.80
3418;DHT22;68007;51.312;12.372;2023-04-06T01:42:58;6.20;77.00
3418;DHT22;68007;51.312;12.372;2023-04-06T01:45:25;6.10;77.10
3418;DHT22;68007;51.312;12.372;2023-04-06T01:47:53;6.20;77.20
3418;DHT22;68007;51.312;12.372;2023-04-06T01:50:20;6.10;77.40
3418;DHT22;68007;51.312;12.372;2023-04-06T01:52:48;6.10;77.50
3418;DHT22;68007;51.312;12.372;2023-04-06T01:55:16;6.10;77.70
3418;DHT22;68007;51.312;12.372;2023-04-06T01:57:45;6.10;77.80
3418;DHT22;68007;51.312;12.372;2023-04-06T02:00:14;6.10;78.00
3418;DHT22;68007;51.312;12.372;2023-04-06T02:02:42;6.10;78.30
3418;DHT22;68007;51.312;12.372;2023-04-06T02:05:09;6.00;78.00
3418;DHT22;68007;51.312;12.372;2023-04-06T02:07:37;6.00;78.30
3418;DHT22;68007;51.312;12.372;2023-04-06T02:10:11;6.00;78.70
3418;DHT22;68007;51.312;12.372;2023-04-06T02:12:39;6.00;78.70
3418;DHT22;68007;51.312;12.372;2023-04-06T02:15:09;6.00;78.80
3418;DHT22;68007;51.312;12.372;2023-04-06T02:17:39;6.00;78.90
3418;DHT22;68007;51.312;12.372;2023-04-06T02:20:07;5.90;79.00
3418;DHT22;68007;51.312;12.372;2023-04-06T02:22:35;5.90;79.00
3418;DHT22;68007;51.312;12.372;2023-04-06T02:25:03;5.90;79.20
3418;DHT22;68007;51.312;12.372;2023-04-06T02:27:31;5.90;79.40
3418;DHT22;68007;51.312;12.372;2023-04-06T02:29:59;5.90;79.70
3418;DHT22;68007;51.312;12.372;2023-04-06T02:32:28;5.90;79.80
3418;DHT22;68007;51.312;12.372;2023-04-06T02:34:55;5.90;79.80
3418;DHT22;68007;51.312;12.372;2023-04-06T02:37:23;5.80;79.70
3418;DHT22;68007;51.312;12.372;2023-04-06T02:39:51;5.80;80.00
3418;DHT22;68007;51.312;12.372;2023-04-06T02:42:18;5.80;80.30
3418;DHT22;68007;51.312;12.372;2023-04-06T02:44:46;5.80;80.10
3418;DHT22;68007;51.312;12.372;2023-04-06T02:47:14;5.80;80.10
3418;DHT22;68007;51.312;12.372;2023-04-06T02:49:43;5.80;80.20
3418;DHT22;68007;51.312;12.372;2023-04-06T02:52:10;5.80;80.40
3418;DHT22;68007;51.312;12.372;2023-04-06T02:54:38;5.80;80.50
3418;DHT22;68007;51.312;12.372;2023-04-06T02:57:06;5.80;80.50
3418;DHT22;68007;51.312;12.372;2023-04-06T02:59:33;5.80;80.50
3418;DHT22;68007;51.312;12.372;2023-04-06T03:02:01;5.80;80.80
3418;DHT22;68007;51.312;12.372;2023-04-06T03:04:28;5.80;80.70
3418;DHT22;68007;51.312;12.372;2023-04-06T03:06:57;5.80;80.90
3418;DHT22;68007;51.312;12.372;2023-04-06T03:09:25;5.80;80.80
3418;DHT22;68007;51.312;12.372;2023-04-06T03:11:53;5.80;80.90
3418;DHT22;68007;51.312;12.372;2023-04-06T03:14:21;5.80;81.10
3418;DHT22;68007;51.312;12.372;2023-04-06T03:16:49;5.80;81.20
3418;DHT22;68007;51.312;12.372;2023-04-06T03:19:16;5.80;81.60
3418;DHT22;68007;51.312;12.372;2023-04-06T03:21:44;5.70;81.40
3418;DHT22;68007;51.312;12.372;2023-04-06T03:24:13;5.70;81.90
3418;DHT22;68007;51.312;12.372;2023-04-06T03:26:41;5.70;81.70
3418;DHT22;68007;51.312;12.372;2023-04-06T03:29:08;5.70;81.60
3418;DHT22;68007;51.312;12.372;2023-04-06T03:31:36;5.70;81.80
3418;DHT22;68007;51.312;12.372;2023-04-06T03:34:03;5.70;81.70
3418;DHT22;68007;51.312;12.372;2023-04-06T03:36:31;5.70;82.00
3418;DHT22;68007;51.312;12.372;2023-04-06T03:38:59;5.70;82.00
3418;DHT22;68007;51.312;12.372;2023-04-06T03:41:28;5.70;82.20
3418;DHT22;68007;51.312;12.372;2023-04-06T03:43:55;5.70;82.30
3418;DHT22;68007;51.312;12.372;2023-04-06T03:46:23;5.70;82.50
3418;DHT22;68007;51.312;12.372;2023-04-06T03:48:50;5.60;82.50
3418;DHT22;68007;51.312;12.372;2023-04-06T03:51:18;5.60;82.70
3418;DHT22;68007;51.312;12.372;2023-04-06T03:53:46;5.60;83.10
3418;DHT22;68007;51.312;12.372;2023-04-06T03:56:13;5.60;83.20
3418;DHT22;68007;51.312;12.372;2023-04-06T03:58:43;5.60;83.10
3418;DHT22;68007;51.312;12.372;2023-04-06T04:01:11;5.60;83.10
3418;DHT22;68007;51.312;12.372;2023-04-06T04:03:38;5.60;83.50
3418;DHT22;68007;51.312;12.372;2023-04-06T04:06:06;5.50;83.70
3418;DHT22;68007;51.312;12.372;2023-04-06T04:08:34;5.60;83.70
3418;DHT22;68007;51.312;12.372;2023-04-06T04:11:02;5.50;83.70
3418;DHT22;68007;51.312;12.372;2023-04-06T04:13:30;5.50;83.90
3418;DHT22;68007;51.312;12.372;2023-04-06T04:15:59;5.50;84.10
3418;DHT22;68007;51.312;12.372;2023-04-06T04:18:27;5.50;84.10
3418;DHT22;68007;51.312;12.372;2023-04-06T04:20:54;5.50;84.30
3418;DHT22;68007;51.312;12.372;2023-04-06T04:23:22;5.40;85.20
3418;DHT22;68007;51.312;12.372;2023-04-06T04:25:49;5.50;85.10
3418;DHT22;68007;51.312;12.372;2023-04-06T04:28:17;5.40;85.90
3418;DHT22;68007;51.312;12.372;2023-04-06T04:30:46;5.40;85.70
3418;DHT22;68007;51.312;12.372;2023-04-06T04:33:15;5.30;86.70
3418;DHT22;68007;51.312;12.372;2023-04-06T04:35:42;5.30;87.10
3418;DHT22;68007;51.312;12.372;2023-04-06T04:38:10;5.20;87.30
3418;DHT22;68007;51.312;12.372;2023-04-06T04:40:37;5.20;87.90
3418;DHT22;68007;51.312;12.372;2023-04-06T04:43:05;5.20;88.10
3418;DHT22;68007;51.312;12.372;2023-04-06T04:45:33;5.30;87.60
3418;DHT22;68007;51.312;12.372;2023-04-06T04:48:01;5.30;88.00
3418;DHT22;68007;51.312;12.372;2023-04-06T04:50:30;5.30;87.20
3418;DHT22;68007;51.312;12.372;2023-04-06T04:52:57;5.30;87.10
3418;DHT22;68007;51.312;12.372;2023-04-06T04:55:25;5.30;87.90
3418;DHT22;68007;51.312;12.372;2023-04-06T04:57:53;5.30;88.10
3418;DHT22;68007;51.312;12.372;2023-04-06T05:00:21;5.30;87.60
3418;DHT22;68007;51.312;12.372;2023-04-06T05:02:48;5.30;88.00
3418;DHT22;68007;51.312;12.372;2023-04-06T05:05:16;5.30;88.20
3418;DHT22;68007;51.312;12.372;2023-04-06T05:07:45;5.20;88.90
3418;DHT22;68007;51.312;12.372;2023-04-06T05:10:13;5.20;88.70
3418;DHT22;68007;51.312;12.372;2023-04-06T05:12:40;5.20;89.50
3418;DHT22;68007;51.312;12.372;2023-04-06T05:15:09;5.20;88.70
3418;DHT22;68007;51.312;12.372;2023-04-06T05:17:37;5.20;88.30
3418;DHT22;68007;51.312;12.372;2023-04-06T05:20:05;5.20;89.00
3418;DHT22;68007;51.312;12.372;2023-04-06T05:22:33;5.20;88.20
3418;DHT22;68007;51.312;12.372;2023-04-06T05:25:03;5.20;88.00
3418;DHT22;68007;51.312;12.372;2023-04-06T05:27:31;5.10;90.00
3418;DHT22;68007;51.312;12.372;2023-04-06T05:29:58;5.20;88.80
3418;DHT22;68007;51.312;12.372;2023-04-06T05:32:27;5.30;88.30
3418;DHT22;68007;51.312;12.372;2023-04-06T05:34:55;5.30;87.90
3418;DHT22;68007;51.312;12.372;2023-04-06T05:37:22;5.30;88.00
3418;DHT22;68007;51.312;12.372;2023-04-06T05:39:50;5.30;88.10
3418;DHT22;68007;51.312;12.372;2023-04-06T05:42:19;5.30;88.40
3418;DHT22;68007;51.312;12.372;2023-04-06T05:44:47;5.30;87.40
3418;DHT22;68007;51.312;12.372;2023-04-06T05:47:15;5.30;88.00
3418;DHT22;68007;51.312;12.372;2023-04-06T05:49:42;5.30;87.80
3418;DHT22;68007;51.312;12.372;2023-04-06T05:52:10;5.20;87.70
3418;DHT22;68007;51.312;12.372;2023-04-06T05:54:37;5.20;87.50
3418;DHT22;68007;51.312;12.372;2023-04-06T05:57:05;5.20;89.70
3418;DHT22;68007;51.312;12.372;2023-04-06T05:59:35;5.20;88.60
3418;DHT22;68007;51.312;12.372;2023-04-06T06:02:03;5.30;87.50
3418;DHT22;68007;51.312;12.372;2023-04-06T06:04:31;5.20;87.60
3418;DHT22;68007;51.312;12.372;2023-04-06T06:06:58;5.20;87.50
3418;DHT22;68007;51.312;12.372;2023-04-06T06:09:26;5.20;86.80
3418;DHT22;68007;51.312;12.372;2023-04-06T06:11:54;5.20;86.60
3418;DHT22;68007;51.312;12.372;2023-04-06T06:14:21;5.30;86.50
3418;DHT22;68007;51.312;12.372;2023-04-06T06:16:50;5.30;86.80
3418;DHT22;68007;51.312;12.372;2023-04-06T06:19:18;5.30;86.60
3418;DHT22;68007;51.312;12.372;2023-04-06T06:21:45;5.30;86.50
3418;DHT22;68007;51.312;12.372;2023-04-06T06:24:13;5.20;87.50
3418;DHT22;68007;51.312;12.372;2023-04-06T06:26:41;5.30;86.40
3418;DHT22;68007;51.312;12.372;2023-04-06T06:29:09;5.40;86.20
3418;DHT22;68007;51.312;12.372;2023-04-06T06:31:37;5.40;84.20
3418;DHT22;68007;51.312;12.372;2023-04-06T06:34:06;5.40;84.70
3418;DHT22;68007;51.312;12.372;2023-04-06T06:36:34;5.40;83.40
3418;DHT22;68007;51.312;12.372;2023-04-06T06:39:02;5.30;83.00
3418;DHT22;68007;51.312;12.372;2023-04-06T06:41:30;5.30;83.50
3418;DHT22;68007;51.312;12.372;2023-04-06T06:43:57;5.40;82.90
3418;DHT22;68007;51.312;12.372;2023-04-06T06:46:26;5.30;83.30
3418;DHT22;68007;51.312;12.372;2023-04-06T06:48:53;5.30;81.00
3418;DHT22;68007;51.312;12.372;2023-04-06T06:51:22;5.20;81.30
3418;DHT22;68007;51.312;12.372;2023-04-06T06:53:50;5.10;80.30
3418;DHT22;68007;51.312;12.372;2023-04-06T06:56:17;5.00;81.00
3418;DHT22;68007;51.312;12.372;2023-04-06T06:58:45;4.90;81.50
3418;DHT22;68007;51.312;12.372;2023-04-06T07:01:13;5.00;81.30
3418;DHT22;68007;51.312;12.372;2023-04-06T07:03:40;5.20;81.00
3418;DHT22;68007;51.312;12.372;2023-04-06T07:06:08;5.30;80.20
3418;DHT22;68007;51.312;12.372;2023-04-06T07:08:37;5.40;79.40
3418;DHT22;68007;51.312;12.372;2023-04-06T07:11:04;5.50;79.10
3418;DHT22;68007;51.312;12.372;2023-04-06T07:13:32;5.60;77.40
3418;DHT22;68007;51.312;12.372;2023-04-06T07:16:00;5.60;77.00
3418;DHT22;68007;51.312;12.372;2023-04-06T07:18:27;5.50;74.50
3418;DHT22;68007;51.312;12.372;2023-04-06T07:20:55;5.60;75.20
3418;DHT22;68007;51.312;12.372;2023-04-06T07:23:22;5.60;73.50
3418;DHT22;68007;51.312;12.372;2023-04-06T07:25:51;5.50;74.10
3418;DHT22;68007;51.312;12.372;2023-04-06T07:28:20;5.60;75.00
3418;DHT22;68007;51.312;12.372;2023-04-06T07:30:48;5.60;71.70
3418;DHT22;68007;51.312;12.372;2023-04-06T07:33:16;5.60;72.60
3418;DHT22;68007;51.312;12.372;2023-04-06T07:35:44;5.60;71.70
3418;DHT22;68007;51.312;12.372;2023-04-06T07:38:12;5.70;72.80
3418;DHT22;68007;51.312;12.372;2023-04-06T07:40:39;5.70;71.00
3418;DHT22;68007;51.312;12.372;2023-04-06T07:43:08;5.70;69.90
3418;DHT22;68007;51.312;12.372;2023-04-06T07:45:36;5.80;70.00
3418;DHT22;68007;51.312;12.372;2023-04-06T07:48:03;5.90;70.40
3418;DHT22;68007;51.312;12.372;2023-04-06T07:50:31;6.00;69.60
3418;DHT22;68007;51.312;12.372;2023-04-06T07:52:59;6.10;69.30
3418;DHT22;68007;51.312;12.372;2023-04-06T07:55:27;6.10;69.50
3418;DHT22;68007;51.312;12.372;2023-04-06T07:57:54;6.00;68.70
3418;DHT22;68007;51.312;12.372;2023-04-06T08:00:24;6.10;69.20
3418;DHT22;68007;51.312;12.372;2023-04-06T08:02:51;6.10;68.90
3418;DHT22;68007;51.312;12.372;2023-04-06T08:05:19;6.20;68.10
3418;DHT22;68007;51.312;12.372;2023-04-06T08:07:47;6.20;68.80
3418;DHT22;68007;51.312;12.372;2023-04-06T08:10:14;6.30;69.50
3418;DHT22;68007;51.312;12.372;2023-04-06T08:12:42;6.40;70.50
3418;DHT22;68007;51.312;12.372;2023-04-06T08:15:10;6.50;68.90
3418;DHT22;68007;51.312;12.372;2023-04-06T08:17:39;6.40;68.00
3418;DHT22;68007;51.312;12.372;2023-04-06T08:20:07;6.50;69.30
3418;DHT22;68007;51.312;12.372;2023-04-06T08:22:35;6.50;67.30
3418;DHT22;68007;51.312;12.372;2023-04-06T08:25:03;6.60;69.00
3418;DHT22;68007;51.312;12.372;2023-04-06T08:27:31;6.60;67.40
3418;DHT22;68007;51.312;12.372;2023-04-06T08:29:59;6.60;67.40
3418;DHT22;68007;51.312;12.372;2023-04-06T08:32:27;6.70;67.90
3418;DHT22;68007;51.312;12.372;2023-04-06T08:34:56;6.80;68.90
3418;DHT22;68007;51.312;12.372;2023-04-06T08:37:24;6.90;67.80
3418;DHT22;68007;51.312;12.372;2023-04-06T08:39:52;6.80;66.30
3418;DHT22;68007;51.312;12.372;2023-04-06T08:42:21;6.90;66.50
3418;DHT22;68007;51.312;12.372;2023-04-06T08:44:52;7.00;67.00
3418;DHT22;68007;51.312;12.372;2023-04-06T08:47:21;7.10;68.00
3418;DHT22;68007;51.312;12.372;2023-04-06T08:49:49;7.20;67.80
3418;DHT22;68007;51.312;12.372;2023-04-06T08:52:19;7.20;64.90
3418;DHT22;68007;51.312;12.372;2023-04-06T08:54:47;7.20;64.20
3418;DHT22;68007;51.312;12.372;2023-04-06T08:57:15;7.20;63.10
3418;DHT22;68007;51.312;12.372;2023-04-06T08:59:44;7.20;63.10
3418;DHT22;68007;51.312;12.372;2023-04-06T09:02:16;7.30;64.80
3418;DHT22;68007;51.312;12.372;2023-04-06T09:04:46;7.40;64.80
3418;DHT22;68007;51.312;12.372;2023-04-06T09:07:15;7.60;65.10
3418;DHT22;68007;51.312;12.372;2023-04-06T09:09:44;7.70;63.90
3418;DHT22;68007;51.312;12.372;2023-04-06T09:12:23;7.80;62.50
3418;DHT22;68007;51.312;12.372;2023-04-06T09:14:50;7.80;60.10
3418;DHT22;68007;51.312;12.372;2023-04-06T09:17:22;7.80;60.70
3418;DHT22;68007;51.312;12.372;2023-04-06T09:19:50;7.80;60.80
3418;DHT22;68007;51.312;12.372;2023-04-06T09:22:18;7.90;61.00
3418;DHT22;68007;51.312;12.372;2023-04-06T09:24:48;8.00;62.10
3418;DHT22;68007;51.312;12.372;2023-04-06T09:27:16;8.20;62.70
3418;DHT22;68007;51.312;12.372;2023-04-06T09:29:44;8.20;62.30
3418;DHT22;68007;51.312;12.372;2023-04-06T09:32:12;8.30;57.20
3418;DHT22;68007;51.312;12.372;2023-04-06T09:34:42;8.30;54.80
3418;DHT22;68007;51.312;12.372;2023-04-06T09:37:15;8.40;55.40
3418;DHT22;68007;51.312;12.372;2023-04-06T09:39:43;8.40;55.60
3418;DHT22;68007;51.312;12.372;2023-04-06T09:42:23;8.50;58.20
3418;DHT22;68007;51.312;12.372;2023-04-06T09:44:52;8.60;58.90
3418;DHT22;68007;51.312;12.372;2023-04-06T09:47:20;8.70;57.20
3418;DHT22;68007;51.312;12.372;2023-04-06T09:49:50;8.70;55.00
3418;DHT22;68007;51.312;12.372;2023-04-06T09:52:24;8.70;53.90
3418;DHT22;68007;51.312;12.372;2023-04-06T09:54:55;8.70;53.70
3418;DHT22;68007;51.312;12.372;2023-04-06T09:57:26;8.80;51.10
3418;DHT22;68007;51.312;12.372;2023-04-06T10:00:02;8.80;52.10
3418;DHT22;68007;51.312;12.372;2023-04-06T10:02:43;8.90;51.60
3418;DHT22;68007;51.312;12.372;2023-04-06T10:05:17;8.90;52.00
3418;DHT22;68007;51.312;12.372;2023-04-06T10:07:48;9.10;52.50
3418;DHT22;68007;51.312;12.372;2023-04-06T10:10:18;9.20;52.90
3418;DHT22;68007;51.312;12.372;2023-04-06T10:12:47;9.40;49.80
3418;DHT22;68007;51.312;12.372;2023-04-06T10:15:16;9.50;49.80
3418;DHT22;68007;51.312;12.372;2023-04-06T10:17:44;9.70;51.60
3418;DHT22;68007;51.312;12.372;2023-04-06T10:20:16;9.80;51.20
3418;DHT22;68007;51.312;12.372;2023-04-06T10:22:53;9.90;51.60
3418;DHT22;68007;51.312;12.372;2023-04-06T10:25:29;10.10;49.60
3418;DHT22;68007;51.312;12.372;2023-04-06T10:28:05;10.10;49.70
3418;DHT22;68007;51.312;12.372;2023-04-06T10:30:34;10.30;49.40
3418;DHT22;68007;51.312;12.372;2023-04-06T10:33:12;10.40;51.30
3418;DHT22;68007;51.312;12.372;2023-04-06T10:35:40;10.60;50.40
3418;DHT22;68007;51.312;12.372;2023-04-06T10:38:08;10.70;49.20
3418;DHT22;68007;51.312;12.372;2023-04-06T10:40:37;10.80;49.10
3418;DHT22;68007;51.312;12.372;2023-04-06T10:43:09;11.00;47.20
3418;DHT22;68007;51.312;12.372;2023-04-06T10:45:38;11.10;46.50
3418;DHT22;68007;51.312;12.372;2023-04-06T10:48:15;11.10;45.10
3418;DHT22;68007;51.312;12.372;2023-04-06T10:50:44;10.90;45.30
3418;DHT22;68007;51.312;12.372;2023-04-06T10:53:21;10.90;46.50
3418;DHT22;68007;51.312;12.372;2023-04-06T10:55:50;11.10;46.90
3418;DHT22;68007;51.312;12.372;2023-04-06T10:58:19;11.20;46.10
3418;DHT22;68007;51.312;12.372;2023-04-06T11:00:48;11.40;46.80
3418;DHT22;68007;51.312;12.372;2023-04-06T11:03:16;11.50;46.60
3418;DHT22;68007;51.312;12.372;2023-04-06T11:05:44;11.60;47.40
3418;DHT22;68007;51.312;12.372;2023-04-06T11:08:22;11.70;46.20
3418;DHT22;68007;51.312;12.372;2023-04-06T11:10:50;11.70;45.80
3418;DHT22;68007;51.312;12.372;2023-04-06T11:13:19;11.70;45.10
3418;DHT22;68007;51.312;12.372;2023-04-06T11:15:46;11.70;47.10
3418;DHT22;68007;51.312;12.372;2023-04-06T11:18:17;11.80;47.40
3418;DHT22;68007;51.312;12.372;2023-04-06T11:20:47;11.80;47.70
3418;DHT22;68007;51.312;12.372;2023-04-06T11:23:22;11.90;47.70
3418;DHT22;68007;51.312;12.372;2023-04-06T11:25:51;11.90;44.30
3418;DHT22;68007;51.312;12.372;2023-04-06T11:28:20;12.10;46.90
3418;DHT22;68007;51.312;12.372;2023-04-06T11:30:48;12.20;45.00
3418;DHT22;68007;51.312;12.372;2023-04-06T11:33:20;12.40;43.10
3418;DHT22;68007;51.312;12.372;2023-04-06T11:35:48;12.60;42.80
3418;DHT22;68007;51.312;12.372;2023-04-06T11:38:18;12.60;44.20
3418;DHT22;68007;51.312;12.372;2023-04-06T11:40:46;12.70;41.70
3418;DHT22;68007;51.312;12.372;2023-04-06T11:43:14;12.90;42.70
3418;DHT22;68007;51.312;12.372;2023-04-06T11:45:43;13.00;41.60
3418;DHT22;68007;51.312;12.372;2023-04-06T11:48:18;13.20;44.70
3418;DHT22;68007;51.312;12.372;2023-04-06T11:50:46;13.50;43.80
3418;DHT22;68007;51.312;12.372;2023-04-06T11:53:14;13.80;44.40
3418;DHT22;68007;51.312;12.372;2023-04-06T11:55:42;13.90;44.00
3418;DHT22;68007;51.312;12.372;2023-04-06T11:58:12;14.10;42.40
3418;DHT22;68007;51.312;12.372;2023-04-06T12:00:43;14.30;41.60
3418;DHT22;68007;51.312;12.372;2023-04-06T12:03:11;14.70;42.10
3418;DHT22;68007;51.312;12.372;2023-04-06T12:05:39;15.20;39.70
3418;DHT22;68007;51.312;12.372;2023-04-06T12:08:07;15.60;42.40
3418;DHT22;68007;51.312;12.372;2023-04-06T12:10:34;15.80;45.00
3418;DHT22;68007;51.312;12.372;2023-04-06T12:13:02;16.00;44.50
3418;DHT22;68007;51.312;12.372;2023-04-06T12:15:29;16.20;44.80
3418;DHT22;68007;51.312;12.372;2023-04-06T12:17:58;16.40;44.70
3418;DHT22;68007;51.312;12.372;2023-04-06T12:20:26;16.70;41.80
3418;DHT22;68007;51.312;12.372;2023-04-06T12:22:53;17.00;42.50
3418;DHT22;68007;51.312;12.372;2023-04-06T12:25:21;17.30;41.50
3418;DHT22;68007;51.312;12.372;2023-04-06T12:27:49;17.20;39.90
3418;DHT22;68007;51.312;12.372;2023-04-06T12:30:16;17.20;43.10
3418;DHT22;68007;51.312;12.372;2023-04-06T12:32:44;17.20;40.10
3418;DHT22;68007;51.312;12.372;2023-04-06T12:35:13;17.40;43.10
3418;DHT22;68007;51.312;12.372;2023-04-06T12:37:42;17.40;43.40
3418;DHT22;68007;51.312;12.372;2023-04-06T12:40:10;17.60;41.70
3418;DHT22;68007;51.312;12.372;2023-04-06T12:42:39;17.60;42.90
3418;DHT22;68007;51.312;12.372;2023-04-06T12:45:08;17.50;43.00
3418;DHT22;68007;51.312;12.372;2023-04-06T12:47:36;17.60;42.90
3418;DHT22;68007;51.312;12.372;2023-04-06T12:50:05;17.60;42.70
3418;DHT22;68007;51.312;12.372;2023-04-06T12:52:34;17.70;41.20
3418;DHT22;68007;51.312;12.372;2023-04-06T12:55:03;17.60;40.20
3418;DHT22;68007;51.312;12.372;2023-04-06T12:57:31;17.60;34.90
3418;DHT22;68007;51.312;12.372;2023-04-06T12:59:59;17.40;40.50
3418;DHT22;68007;51.312;12.372;2023-04-06T13:02:26;17.50;40.00
3418;DHT22;68007;51.312;12.372;2023-04-06T13:04:54;17.50;39.90
3418;DHT22;68007;51.312;12.372;2023-04-06T13:07:21;17.60;43.40
3418;DHT22;68007;51.312;12.372;2023-04-06T13:09:51;17.50;43.50
3418;DHT22;68007;51.312;12.372;2023-04-06T13:12:20;17.50;43.00
3418;DHT22;68007;51.312;12.372;2023-04-06T13:14:47;17.50;43.30
3418;DHT22;68007;51.312;12.372;2023-04-06T13:17:18;17.50;43.80
3418;DHT22;68007;51.312;12.372;2023-04-06T13:19:47;17.60;43.00
3418;DHT22;68007;51.312;12.372;2023-04-06T13:22:14;17.60;41.10
3418;DHT22;68007;51.312;12.372;2023-04-06T13:24:43;17.70;38.30
3418;DHT22;68007;51.312;12.372;2023-04-06T13:27:12;17.70;39.30
3418;DHT22;68007;51.312;12.372;2023-04-06T13:29:39;17.70;42.40
3418;DHT22;68007;51.312;12.372;2023-04-06T13:32:07;17.70;35.80
3418;DHT22;68007;51.312;12.372;2023-04-06T13:34:36;17.70;39.10
3418;DHT22;68007;51.312;12.372;2023-04-06T13:37:03;17.70;42.20
3418;DHT22;68007;51.312;12.372;2023-04-06T13:39:31;17.80;42.40
3418;DHT22;68007;51.312;12.372;2023-04-06T13:41:59;17.80;35.60
3418;DHT22;68007;51.312;12.372;2023-04-06T13:44:29;17.80;40.90
3418;DHT22;68007;51.312;12.372;2023-04-06T13:46:57;17.80;39.20
3418;DHT22;68007;51.312;12.372;2023-04-06T13:49:24;17.80;37.60
3418;DHT22;68007;51.312;12.372;2023-04-06T13:51:52;17.80;40.10
3418;DHT22;68007;51.312;12.372;2023-04-06T13:54:20;17.80;40.60
3418;DHT22;68007;51.312;12.372;2023-04-06T13:56:47;17.80;38.70
3418;DHT22;68007;51.312;12.372;2023-04-06T13:59:15;17.90;39.40
3418;DHT22;68007;51.312;12.372;2023-04-06T14:01:44;17.90;40.70
3418;DHT22;68007;51.312;12.372;2023-04-06T14:04:12;17.90;41.00
3418;DHT22;68007;51.312;12.372;2023-04-06T14:06:39;17.80;38.50
3418;DHT22;68007;51.312;12.372;2023-04-06T14:09:07;17.80;40.50
3418;DHT22;68007;51.312;12.372;2023-04-06T14:11:34;17.60;41.30
3418;DHT22;68007;51.312;12.372;2023-04-06T14:14:03;17.60;36.10
3418;DHT22;68007;51.312;12.372;2023-04-06T14:16:30;17.70;38.60
3418;DHT22;68007;51.312;12.372;2023-04-06T14:18:59;17.80;38.80
3418;DHT22;68007;51.312;12.372;2023-04-06T14:21:27;17.80;34.80
3418;DHT22;68007;51.312;12.372;2023-04-06T14:23:54;17.70;37.60
3418;DHT22;68007;51.312;12.372;2023-04-06T14:26:22;17.60;36.40
3418;DHT22;68007;51.312;12.372;2023-04-06T14:28:50;17.70;35.30
3418;DHT22;68007;51.312;12.372;2023-04-06T14:31:18;17.70;39.10
3418;DHT22;68007;51.312;12.372;2023-04-06T14:33:45;17.70;38.70
3418;DHT22;68007;51.312;12.372;2023-04-06T14:36:14;17.70;34.60
3418;DHT22;68007;51.312;12.372;2023-04-06T14:38:41;17.80;38.90
3418;DHT22;68007;51.312;12.372;2023-04-06T14:41:15;17.90;37.80
3418;DHT22;68007;51.312;12.372;2023-04-06T14:43:43;17.80;38.20
3418;DHT22;68007;51.312;12.372;2023-04-06T14:46:10;17.70;37.40
3418;DHT22;68007;51.312;12.372;2023-04-06T14:48:38;17.60;38.60
3418;DHT22;68007;51.312;12.372;2023-04-06T14:51:06;17.50;35.00
3418;DHT22;68007;51.312;12.372;2023-04-06T14:53:35;17.60;38.80
3418;DHT22;68007;51.312;12.372;2023-04-06T14:56:03;17.60;38.70
3418;DHT22;68007;51.312;12.372;2023-04-06T14:58:31;17.70;36.70
3418;DHT22;68007;51.312;12.372;2023-04-06T15:01:00;17.80;38.00
3418;DHT22;68007;51.312;12.372;2023-04-06T15:03:28;17.80;37.20
3418;DHT22;68007;51.312;12.372;2023-04-06T15:05:56;17.80;38.70
3418;DHT22;68007;51.312;12.372;2023-04-06T15:08:24;17.80;38.60
3418;DHT22;68007;51.312;12.372;2023-04-06T15:10:53;17.80;34.50
3418;DHT22;68007;51.312;12.372;2023-04-06T15:13:22;17.70;34.20
3418;DHT22;68007;51.312;12.372;2023-04-06T15:15:50;17.50;36.70
3418;DHT22;68007;51.312;12.372;2023-04-06T15:18:18;17.60;35.30
3418;DHT22;68007;51.312;12.372;2023-04-06T15:20:46;17.60;35.30
3418;DHT22;68007;51.312;12.372;2023-04-06T15:23:13;17.60;39.10
3418;DHT22;68007;51.312;12.372;2023-04-06T15:25:41;17.50;32.90
3418;DHT22;68007;51.312;12.372;2023-04-06T15:28:10;17.50;35.00
3418;DHT22;68007;51.312;12.372;2023-04-06T15:30:37;17.40;34.60
3418;DHT22;68007;51.312;12.372;2023-04-06T15:33:07;17.30;34.30
3418;DHT22;68007;51.312;12.372;2023-04-06T15:35:35;17.30;39.30
3418;DHT22;68007;51.312;12.372;2023-04-06T15:38:05;17.30;35.50
3418;DHT22;68007;51.312;12.372;2023-04-06T15:40:34;17.20;33.10
3418;DHT22;68007;51.312;12.372;2023-04-06T15:43:02;17.20;34.70
3418;DHT22;68007;51.312;12.372;2023-04-06T15:45:31;17.10;35.20
3418;DHT22;68007;51.312;12.372;2023-04-06T15:47:58;17.20;35.90